Time;durP1;ratioP1;P1;durP2;ratioP2;P2;SDS_P1;SDS_P2;PMS_P1;PMS_P2;Temp;Humidity;BMP_temperature;BMP_pressure;BME280_temperature;BME280_humidity;BME280_pressure;Samples;Min_cycle;Max_cycle;Signal;HPM_P1;HPM_P2
2022/03/21 00:01:16;;;;;;;;;;;7.40;99.90;;;;;;5134715;27;19908;-69
2022/03/21 00:03:42;;;;;;;;;;;7.50;99.90;;;;;;5134241;27;19918;-69
2022/03/21 00:06:08;;;;;;;;;;;;;;;;;;5135276;27;19960;-70
2022/03/21 00:08:34;;;;;;;;;;;;;;;;;;5134333;27;19908;-70
2022/03/21 00:10:59;;;;;;;;;;;7.20;99.90;;;;;;5135151;27;20276;-69
2022/03/21 00:13:26;;;;;;;;;;;;;;;;;;5135199;27;20355;-69
2022/03/21 00:15:52;;;;;;;;;;;7.50;99.90;;;;;;5134228;27;19910;-68
2022/03/21 00:18:18;;;;;;;;;;;7.50;99.90;;;;;;5135123;27;19907;-68
2022/03/21 00:20:45;;;;;;;;;;;7.50;99.90;;;;;;5116081;27;20416;-68
2022/03/21 00:23:11;;;;;;;;;;;7.50;99.90;;;;;;5134994;27;19907;-69
2022/03/21 00:25:37;;;;;;;;;;;7.50;99.90;;;;;;5134131;27;19908;-69
2022/03/21 00:28:03;;;;;;;;;;;7.60;99.90;;;;;;5134866;27;20363;-69
2022/03/21 00:30:29;;;;;;;;;;;7.50;99.90;;;;;;5133701;27;19955;-69
2022/03/21 00:32:55;;;;;;;;;;;7.50;99.90;;;;;;5134017;27;20455;-69
2022/03/21 00:35:21;;;;;;;;;;;7.50;99.90;;;;;;5134809;27;20376;-69
2022/03/21 00:37:46;;;;;;;;;;;7.50;99.90;;;;;;5133775;27;19908;-69
2022/03/21 00:40:13;;;;;;;;;;;7.30;99.90;;;;;;5134659;27;19914;-69
2022/03/21 00:42:40;;;;;;;;;;;7.30;99.90;;;;;;5133846;27;19931;-68
2022/03/21 00:45:06;;;;;;;;;;;;;;;;;;5134412;27;19912;-69
2022/03/21 00:47:31;;;;;;;;;;;;;;;;;;5134397;27;19914;-71
2022/03/21 00:49:57;;;;;;;;;;;7.30;99.90;;;;;;5133539;27;19923;-69
2022/03/21 00:52:23;;;;;;;;;;;7.30;99.90;;;;;;5134461;27;19994;-70
2022/03/21 00:54:48;;;;;;;;;;;7.30;99.90;;;;;;5133642;27;19907;-68
2022/03/21 00:57:14;;;;;;;;;;;7.30;99.90;;;;;;5134335;27;19994;-68
2022/03/21 00:59:40;;;;;;;;;;;;;;;;;;5133424;27;20011;-69
2022/03/21 01:02:08;;;;;;;;;;;;;;;;;;5134252;27;20431;-68
2022/03/21 01:04:34;;;;;;;;;;;;;;;;;;5133709;27;19976;-71
2022/03/21 01:06:59;;;;;;;;;;;7.50;99.90;;;;;;5133715;27;19911;-68
2022/03/21 01:09:25;;;;;;;;;;;;;;;;;;5133978;27;19915;-69
2022/03/21 01:11:51;;;;;;;;;;;7.20;99.90;;;;;;5133234;27;19907;-69
2022/03/21 01:14:16;;;;;;;;;;;7.30;99.90;;;;;;5134010;27;20373;-69
2022/03/21 01:16:42;;;;;;;;;;;7.40;99.90;;;;;;5133043;27;20342;-69
2022/03/21 01:19:07;;;;;;;;;;;7.50;99.90;;;;;;5133966;27;19916;-69
2022/03/21 01:21:34;;;;;;;;;;;;;;;;;;5133871;27;20299;-69
2022/03/21 01:24:00;;;;;;;;;;;;;;;;;;5114815;27;20363;-68
2022/03/21 01:26:25;;;;;;;;;;;;;;;;;;5133694;27;19926;-69
2022/03/21 01:28:51;;;;;;;;;;;7.20;99.90;;;;;;5132979;27;19907;-69
2022/03/21 01:31:16;;;;;;;;;;;7.20;99.90;;;;;;5133665;27;20356;-68
2022/03/21 01:33:42;;;;;;;;;;;7.10;99.90;;;;;;5132909;27;20307;-68
2022/03/21 01:36:09;;;;;;;;;;;7.20;99.90;;;;;;5133592;27;19907;-68
2022/03/21 01:38:34;;;;;;;;;;;;;;;;;;5133542;27;20008;-70
2022/03/21 01:41:00;;;;;;;;;;;7.60;99.90;;;;;;5132637;27;20399;-69
2022/03/21 01:43:25;;;;;;;;;;;7.60;99.90;;;;;;5133498;27;19914;-68
2022/03/21 01:45:51;;;;;;;;;;;7.50;99.90;;;;;;5132566;27;19931;-69
2022/03/21 01:48:17;;;;;;;;;;;7.50;99.90;;;;;;5133505;27;19990;-68
2022/03/21 01:50:43;;;;;;;;;;;7.30;99.90;;;;;;5132310;27;19930;-69
2022/03/21 20:37:39;;;;;;;;;;;;;;;;;;5156143;27;19912;-77
2022/03/21 20:40:05;;;;;;;;;;;;;;;;;;5140371;27;20161;-74
2022/03/21 20:42:31;;;;;;;;;;;13.40;1.00;;;;;;5141367;27;19915;-75
2022/03/21 20:44:57;;;;;;;;;;;13.30;1.00;;;;;;5143088;27;20356;-74
2022/03/21 20:47:23;;;;;;;;;;;13.10;1.00;;;;;;5129935;27;19915;-75
2022/03/21 20:49:49;;;;;;;;;;;;;;;;;;5133765;27;19914;-73
2022/03/21 20:52:15;;;;;;;;;;;13.00;1.00;;;;;;5154248;27;19907;-74
2022/03/21 20:54:42;;;;;;;;;;;;;;;;;;5150131;27;19907;-74
2022/03/21 20:57:11;;;;;;;;;;;12.90;1.00;;;;;;5148769;27;20033;-74
2022/03/21 20:59:37;;;;;;;;;;;12.70;1.00;;;;;;5127893;28;20414;-74
2022/03/21 21:02:03;;;;;;;;;;;12.50;1.00;;;;;;5133758;28;19903;-74
2022/03/21 21:04:31;;;;;;;;;;;12.60;1.00;;;;;;5146239;27;19918;-74
2022/03/21 21:06:57;;;;;;;;;;;12.50;1.00;;;;;;5157858;27;19912;-75
2022/03/21 21:09:23;;;;;;;;;;;12.20;1.00;;;;;;5152488;27;20815;-75
2022/03/21 21:11:49;;;;;;;;;;;12.20;1.00;;;;;;5155992;27;20283;-74
2022/03/21 21:14:16;;;;;;;;;;;12.40;1.00;;;;;;5155978;27;20382;-75
2022/03/21 21:16:44;;;;;;;;;;;;;;;;;;5154707;27;19917;-73
2022/03/21 21:19:10;;;;;;;;;;;12.20;1.00;;;;;;5151408;27;19919;-76
2022/03/21 21:21:36;;;;;;;;;;;12.30;1.00;;;;;;5155175;27;19907;-74
2022/03/21 21:24:02;;;;;;;;;;;12.50;1.00;;;;;;5155040;27;19930;-75
2022/03/21 21:26:29;;;;;;;;;;;12.70;1.00;;;;;;5155620;27;19914;-75
2022/03/21 21:28:54;;;;;;;;;;;12.70;1.00;;;;;;5136522;27;20002;-74
2022/03/21 21:31:23;;;;;;;;;;;12.80;1.00;;;;;;5164747;27;19907;-74
2022/03/21 21:33:49;;;;;;;;;;;;;;;;;;5143160;27;19918;-72
2022/03/21 21:36:16;;;;;;;;;;;12.90;1.00;;;;;;5156231;27;19927;-74
2022/03/21 21:38:43;;;;;;;;;;;;;;;;;;5136005;27;19996;-74
2022/03/21 21:41:09;;;;;;;;;;;12.90;1.00;;;;;;5137829;28;20153;-75
2022/03/21 21:43:34;;;;;;;;;;;12.90;1.00;;;;;;5146738;27;19946;-76
2022/03/21 21:46:00;;;;;;;;;;;12.90;1.00;;;;;;5156469;27;19907;-75
2022/03/21 21:48:26;;;;;;;;;;;12.80;1.00;;;;;;5144622;27;19908;-75
2022/03/21 21:50:52;;;;;;;;;;;12.80;1.00;;;;;;5140486;27;19946;-73
2022/03/21 21:53:18;;;;;;;;;;;12.80;1.00;;;;;;5147424;27;19955;-75
2022/03/21 21:55:43;;;;;;;;;;;12.80;1.00;;;;;;5144274;27;19929;-74
2022/03/21 21:58:10;;;;;;;;;;;12.70;1.00;;;;;;5095890;28;19911;-74
2022/03/21 22:00:36;;;;;;;;;;;12.70;1.00;;;;;;5115316;28;19908;-75
2022/03/21 22:03:01;;;;;;;;;;;12.70;1.00;;;;;;5113659;28;19960;-74
2022/03/21 22:05:28;;;;;;;;;;;12.60;1.00;;;;;;5096936;28;19911;-75
2022/03/21 22:07:55;;;;;;;;;;;12.60;1.00;;;;;;5114559;28;20002;-74
2022/03/21 22:10:21;;;;;;;;;;;12.60;1.00;;;;;;5115213;28;19914;-75
2022/03/21 22:12:46;;;;;;;;;;;;;;;;;;5114991;28;19907;-73
2022/03/21 22:15:13;;;;;;;;;;;12.60;1.00;;;;;;5114679;28;19960;-74
2022/03/21 22:17:38;;;;;;;;;;;12.60;1.00;;;;;;5105588;28;20313;-75
2022/03/21 22:20:05;;;;;;;;;;;12.50;1.00;;;;;;5094050;28;19957;-76
2022/03/21 22:22:30;;;;;;;;;;;12.50;1.00;;;;;;5076553;28;20280;-75
2022/03/21 22:24:56;;;;;;;;;;;12.40;1.00;;;;;;5093983;28;19908;-75
2022/03/21 22:27:22;;;;;;;;;;;12.40;1.00;;;;;;5094556;28;19912;-75
2022/03/21 22:29:48;;;;;;;;;;;;;;;;;;5094831;28;20426;-73
2022/03/21 22:32:14;;;;;;;;;;;12.40;1.00;;;;;;5094333;28;19962;-75
2022/03/21 22:34:41;;;;;;;;;;;12.30;1.00;;;;;;5112966;28;19999;-75
2022/03/21 22:37:07;;;;;;;;;;;12.30;1.00;;;;;;5113763;28;20461;-75
2022/03/21 22:47:10;;;;;;;;;;;12.20;1.00;;;;;;5096548;28;19977;-75
2022/03/21 22:47:31;;;;;;;;;;;12.20;1.00;;;;;;5114903;28;19957;-75
2022/03/21 22:49:56;;;;;;;;;;;12.20;1.00;;;;;;5113820;28;19964;-74
2022/03/21 22:52:22;;;;;;;;;;;12.10;1.00;;;;;;5097513;28;19915;-75
2022/03/21 22:54:48;;;;;;;;;;;;;;;;;;5093966;28;20333;-74
2022/03/21 22:57:16;;;;;;;;;;;12.20;1.00;;;;;;5093592;28;20368;-76
2022/03/21 22:59:41;;;;;;;;;;;12.10;1.00;;;;;;5093079;28;19965;-75
2022/03/21 23:02:07;;;;;;;;;;;12.00;1.00;;;;;;5093165;28;19908;-75
2022/03/21 23:04:34;;;;;;;;;;;12.00;1.00;;;;;;5109932;28;19908;-75
2022/03/21 23:07:00;;;;;;;;;;;12.00;1.00;;;;;;5113309;28;19938;-75
2022/03/21 23:09:26;;;;;;;;;;;12.10;1.00;;;;;;5114236;28;20006;-75
2022/03/21 23:11:58;;;;;;;;;;;;;;;;;;5113651;28;20398;-73
2022/03/21 23:14:24;;;;;;;;;;;12.10;1.00;;;;;;5095774;28;19915;-74
2022/03/21 23:16:50;;;;;;;;;;;;;;;;;;5113823;28;20103;-73
2022/03/21 23:19:15;;;;;;;;;;;12.10;1.00;;;;;;5113606;28;19908;-75
2022/03/21 23:21:41;;;;;;;;;;;12.00;1.00;;;;;;5095674;28;20267;-75
2022/03/21 23:24:06;;;;;;;;;;;12.10;1.00;;;;;;5113097;28;20318;-75
2022/03/21 23:26:32;;;;;;;;;;;12.00;1.00;;;;;;5095641;28;19908;-76
2022/03/21 23:28:58;;;;;;;;;;;11.90;1.00;;;;;;5112984;28;19908;-74
2022/03/21 23:31:23;;;;;;;;;;;11.90;1.00;;;;;;5113897;28;19908;-75
2022/03/21 23:33:49;;;;;;;;;;;11.90;1.00;;;;;;5095389;28;19908;-75
2022/03/21 23:36:14;;;;;;;;;;;11.90;1.00;;;;;;5112592;28;19931;-74
2022/03/21 23:38:40;;;;;;;;;;;11.90;1.00;;;;;;5113632;28;19916;-75
2022/03/21 23:43:51;;;;;;;;;;;11.90;1.00;;;;;;5113903;28;19919;-74
2022/03/21 23:46:17;;;;;;;;;;;12.00;1.00;;;;;;5112953;28;19947;-75
2022/03/21 23:48:43;;;;;;;;;;;;;;;;;;5113490;28;19907;-75
2022/03/21 23:51:09;;;;;;;;;;;12.00;1.00;;;;;;5112602;28;20432;-74
2022/03/21 23:53:34;;;;;;;;;;;12.00;1.00;;;;;;5113355;28;19929;-74
2022/03/21 23:56:00;;;;;;;;;;;12.00;1.00;;;;;;5094224;28;20061;-74
2022/03/21 23:58:26;;;;;;;;;;;12.00;1.00;;;;;;5113394;28;19957;-75
